sensor_id;sensor_type;location;lat;lon;timestamp;pressure;altitude;pressure_sealevel;temperature;humidity
11448;BME280;43755;49.736;8.734;2023-04-27T00:01:34;97989.00;;;3.59;100.00
11448;BME280;43755;49.736;8.734;2023-04-27T00:03:36;97989.06;;;3.58;100.00
11448;BME280;43755;49.736;8.734;2023-04-27T00:05:37;97992.69;;;3.48;100.00
11448;BME280;43755;49.736;8.734;2023-04-27T00:07:39;97997.19;;;3.40;100.00
11448;BME280;43755;49.736;8.734;2023-04-27T00:09:41;97996.38;;;3.35;100.00
11448;BME280;43755;49.736;8.734;2023-04-27T00:11:43;97991.31;;;3.22;100.00
11448;BME280;43755;49.736;8.734;2023-04-27T00:13:44;97988.72;;;3.19;100.00
11448;BME280;43755;49.736;8.734;2023-04-27T00:15:46;97994.03;;;3.13;100.00
11448;BME280;43755;49.736;8.734;2023-04-27T00:17:47;97991.50;;;3.07;100.00
11448;BME280;43755;49.736;8.734;2023-04-27T00:19:49;97997.66;;;3.05;100.00
11448;BME280;43755;49.736;8.734;2023-04-27T00:21:51;97985.50;;;3.01;100.00
11448;BME280;43755;49.736;8.734;2023-04-27T00:23:53;97985.63;;;2.93;100.00
11448;BME280;43755;49.736;8.734;2023-04-27T00:25:56;97982.19;;;2.88;100.00
11448;BME280;43755;49.736;8.734;2023-04-27T00:27:57;97984.75;;;2.91;100.00
11448;BME280;43755;49.736;8.734;2023-04-27T00:29:59;97975.25;;;2.84;100.00
11448;BME280;43755;49.736;8.734;2023-04-27T00:32:00;97982.22;;;2.86;100.00
11448;BME280;43755;49.736;8.734;2023-04-27T00:34:01;97980.47;;;2.85;100.00
11448;BME280;43755;49.736;8.734;2023-04-27T00:36:03;97970.09;;;2.79;100.00
11448;BME280;43755;49.736;8.734;2023-04-27T00:38:05;97977.94;;;2.79;100.00
11448;BME280;43755;49.736;8.734;2023-04-27T00:40:07;97971.91;;;2.74;100.00
11448;BME280;43755;49.736;8.734;2023-04-27T00:42:10;97971.97;;;2.70;100.00
11448;BME280;43755;49.736;8.734;2023-04-27T00:44:21;97965.94;;;2.65;100.00
11448;BME280;43755;49.736;8.734;2023-04-27T00:46:23;97979.03;;;2.60;100.00
11448;BME280;43755;49.736;8.734;2023-04-27T00:48:25;97973.00;;;2.54;100.00
11448;BME280;43755;49.736;8.734;2023-04-27T00:50:28;97969.50;;;2.59;100.00
11448;BME280;43755;49.736;8.734;2023-04-27T00:52:30;97967.78;;;2.58;100.00
11448;BME280;43755;49.736;8.734;2023-04-27T00:54:31;97968.66;;;2.57;100.00
11448;BME280;43755;49.736;8.734;2023-04-27T00:56:33;97975.63;;;2.55;100.00
11448;BME280;43755;49.736;8.734;2023-04-27T00:58:36;97971.25;;;2.59;100.00
11448;BME280;43755;49.736;8.734;2023-04-27T01:00:37;97965.16;;;2.58;100.00
11448;BME280;43755;49.736;8.734;2023-04-27T01:02:40;97961.75;;;2.52;100.00
11448;BME280;43755;49.736;8.734;2023-04-27T01:04:41;97973.88;;;2.54;100.00
11448;BME280;43755;49.736;8.734;2023-04-27T01:06:43;97970.47;;;2.47;100.00
11448;BME280;43755;49.736;8.734;2023-04-27T01:08:45;97971.34;;;2.50;100.00
11448;BME280;43755;49.736;8.734;2023-04-27T01:10:46;97973.09;;;2.47;100.00
11448;BME280;43755;49.736;8.734;2023-04-27T01:12:48;97978.34;;;2.44;100.00
11448;BME280;43755;49.736;8.734;2023-04-27T01:14:51;97974.06;;;2.40;100.00
11448;BME280;43755;49.736;8.734;2023-04-27T01:16:52;97974.94;;;2.41;100.00
11448;BME280;43755;49.736;8.734;2023-04-27T01:18:54;97976.75;;;2.34;100.00
11448;BME280;43755;49.736;8.734;2023-04-27T01:20:55;97979.38;;;2.31;100.00
11448;BME280;43755;49.736;8.734;2023-04-27T01:22:58;97976.81;;;2.27;100.00
11448;BME280;43755;49.736;8.734;2023-04-27T01:25:01;97978.63;;;2.19;100.00
11448;BME280;43755;49.736;8.734;2023-04-27T01:27:02;97983.88;;;2.16;100.00
11448;BME280;43755;49.736;8.734;2023-04-27T01:29:04;97988.25;;;2.14;100.00
11448;BME280;43755;49.736;8.734;2023-04-27T01:31:05;97982.19;;;2.12;100.00
11448;BME280;43755;49.736;8.734;2023-04-27T01:33:07;97980.47;;;2.08;100.00
11448;BME280;43755;49.736;8.734;2023-04-27T01:35:08;97986.59;;;2.05;100.00
11448;BME280;43755;49.736;8.734;2023-04-27T01:37:10;97984.00;;;2.05;100.00
11448;BME280;43755;49.736;8.734;2023-04-27T01:39:11;97980.53;;;2.01;100.00
11448;BME280;43755;49.736;8.734;2023-04-27T01:41:14;97979.72;;;1.98;100.00
11448;BME280;43755;49.736;8.734;2023-04-27T01:43:15;97973.63;;;1.99;100.00
11448;BME280;43755;49.736;8.734;2023-04-27T01:45:17;97977.09;;;1.99;100.00
11448;BME280;43755;49.736;8.734;2023-04-27T01:47:18;97982.31;;;1.95;100.00
11448;BME280;43755;49.736;8.734;2023-04-27T01:49:20;97982.38;;;1.92;100.00
11448;BME280;43755;49.736;8.734;2023-04-27T01:51:21;97982.38;;;1.89;100.00
11448;BME280;43755;49.736;8.734;2023-04-27T01:53:23;97984.16;;;1.85;100.00
11448;BME280;43755;49.736;8.734;2023-04-27T01:55:24;97988.47;;;1.89;100.00
11448;BME280;43755;49.736;8.734;2023-04-27T01:57:27;97987.63;;;1.86;100.00
11448;BME280;43755;49.736;8.734;2023-04-27T01:59:28;97988.50;;;1.85;100.00
11448;BME280;43755;49.736;8.734;2023-04-27T02:01:30;97990.22;;;1.89;100.00
11448;BME280;43755;49.736;8.734;2023-04-27T02:03:31;97987.53;;;1.95;100.00
11448;BME280;43755;49.736;8.734;2023-04-27T02:05:33;97984.94;;;1.96;100.00
11448;BME280;43755;49.736;8.734;2023-04-27T02:07:34;97985.75;;;2.01;100.00
11448;BME280;43755;49.736;8.734;2023-04-27T02:09:35;97984.00;;;2.05;100.00
11448;BME280;43755;49.736;8.734;2023-04-27T02:11:37;97994.38;;;2.06;100.00
11448;BME280;43755;49.736;8.734;2023-04-27T02:13:40;97981.34;;;2.06;100.00
11448;BME280;43755;49.736;8.734;2023-04-27T02:15:41;97992.59;;;2.15;100.00
11448;BME280;43755;49.736;8.734;2023-04-27T02:17:42;97988.25;;;2.14;100.00
11448;BME280;43755;49.736;8.734;2023-04-27T02:19:45;97989.09;;;2.16;100.00
11448;BME280;43755;49.736;8.734;2023-04-27T02:21:46;97992.69;;;2.05;100.00
11448;BME280;43755;49.736;8.734;2023-04-27T02:23:47;97988.41;;;1.97;100.00
11448;BME280;43755;49.736;8.734;2023-04-27T02:25:49;97998.00;;;1.93;100.00
11448;BME280;43755;49.736;8.734;2023-04-27T02:27:50;97991.88;;;1.96;100.00
11448;BME280;43755;49.736;8.734;2023-04-27T02:29:53;97992.75;;;1.99;100.00
11448;BME280;43755;49.736;8.734;2023-04-27T02:31:55;97994.50;;;1.96;100.00
11448;BME280;43755;49.736;8.734;2023-04-27T02:33:56;98005.84;;;1.89;100.00
11448;BME280;43755;49.736;8.734;2023-04-27T02:35:58;98002.47;;;1.82;100.00
11448;BME280;43755;49.736;8.734;2023-04-27T02:37:59;98002.38;;;1.93;100.00
11448;BME280;43755;49.736;8.734;2023-04-27T02:40:01;98005.81;;;1.96;100.00
11448;BME280;43755;49.736;8.734;2023-04-27T02:42:03;98000.69;;;1.87;100.00
11448;BME280;43755;49.736;8.734;2023-04-27T02:44:04;98012.91;;;1.79;100.00
11448;BME280;43755;49.736;8.734;2023-04-27T02:46:07;98012.03;;;1.79;100.00
11448;BME280;43755;49.736;8.734;2023-04-27T02:48:08;98004.22;;;1.77;100.00
11448;BME280;43755;49.736;8.734;2023-04-27T02:50:10;97998.16;;;1.77;100.00
11448;BME280;43755;49.736;8.734;2023-04-27T02:52:12;98001.59;;;1.80;100.00
11448;BME280;43755;49.736;8.734;2023-04-27T02:54:14;98001.56;;;1.86;100.00
11448;BME280;43755;49.736;8.734;2023-04-27T02:56:15;98008.50;;;1.87;100.00
11448;BME280;43755;49.736;8.734;2023-04-27T02:58:16;98005.91;;;1.84;100.00
11448;BME280;43755;49.736;8.734;2023-04-27T03:00:19;98003.28;;;1.84;100.00
11448;BME280;43755;49.736;8.734;2023-04-27T03:02:22;97998.06;;;1.84;100.00
11448;BME280;43755;49.736;8.734;2023-04-27T03:04:23;97998.06;;;1.84;100.00
11448;BME280;43755;49.736;8.734;2023-04-27T03:06:24;98003.28;;;1.83;100.00
11448;BME280;43755;49.736;8.734;2023-04-27T03:08:26;97999.84;;;1.82;100.00
11448;BME280;43755;49.736;8.734;2023-04-27T03:10:28;98004.22;;;1.80;100.00
11448;BME280;43755;49.736;8.734;2023-04-27T03:12:29;97996.38;;;1.82;100.00
11448;BME280;43755;49.736;8.734;2023-04-27T03:14:31;98003.34;;;1.78;100.00
11448;BME280;43755;49.736;8.734;2023-04-27T03:16:32;97999.88;;;1.78;100.00
11448;BME280;43755;49.736;8.734;2023-04-27T03:18:35;97996.38;;;1.77;100.00
11448;BME280;43755;49.736;8.734;2023-04-27T03:20:36;98007.72;;;1.76;100.00
11448;BME280;43755;49.736;8.734;2023-04-27T03:22:38;97994.66;;;1.78;100.00
11448;BME280;43755;49.736;8.734;2023-04-27T03:24:39;97993.81;;;1.76;100.00
11448;BME280;43755;49.736;8.734;2023-04-27T03:26:41;97994.69;;;1.75;100.00
11448;BME280;43755;49.736;8.734;2023-04-27T03:28:42;97995.56;;;1.75;100.00
11448;BME280;43755;49.736;8.734;2023-04-27T03:30:44;97994.66;;;1.79;100.00
11448;BME280;43755;49.736;8.734;2023-04-27T03:32:45;97998.16;;;1.77;100.00
11448;BME280;43755;49.736;8.734;2023-04-27T03:34:48;98003.38;;;1.75;100.00
11448;BME280;43755;49.736;8.734;2023-04-27T03:36:50;98006.88;;;1.71;100.00
11448;BME280;43755;49.736;8.734;2023-04-27T03:38:51;98009.47;;;1.73;100.00
11448;BME280;43755;49.736;8.734;2023-04-27T03:40:53;97999.91;;;1.72;100.00
11448;BME280;43755;49.736;8.734;2023-04-27T03:42:55;98012.97;;;1.72;100.00
11448;BME280;43755;49.736;8.734;2023-04-27T03:44:56;97996.44;;;1.71;100.00
11448;BME280;43755;49.736;8.734;2023-04-27T03:46:57;97993.00;;;1.71;100.00
11448;BME280;43755;49.736;8.734;2023-04-27T03:48:59;97994.69;;;1.72;100.00
11448;BME280;43755;49.736;8.734;2023-04-27T03:51:02;97983.34;;;1.77;100.00
11448;BME280;43755;49.736;8.734;2023-04-27T03:53:03;97987.75;;;1.72;100.00
11448;BME280;43755;49.736;8.734;2023-04-27T03:55:06;97983.41;;;1.71;100.00
11448;BME280;43755;49.736;8.734;2023-04-27T03:57:08;97995.56;;;1.74;100.00
11448;BME280;43755;49.736;8.734;2023-04-27T03:59:09;97998.22;;;1.69;100.00
11448;BME280;43755;49.736;8.734;2023-04-27T04:01:11;97988.66;;;1.68;100.00
11448;BME280;43755;49.736;8.734;2023-04-27T04:03:13;97994.75;;;1.65;100.00
11448;BME280;43755;49.736;8.734;2023-04-27T04:05:15;97995.66;;;1.63;100.00
11448;BME280;43755;49.736;8.734;2023-04-27T04:07:18;98004.31;;;1.70;100.00
11448;BME280;43755;49.736;8.734;2023-04-27T04:09:19;97994.69;;;1.75;100.00
11448;BME280;43755;49.736;8.734;2023-04-27T04:11:21;97999.84;;;1.81;100.00
11448;BME280;43755;49.736;8.734;2023-04-27T04:13:22;98002.41;;;1.85;100.00
11448;BME280;43755;49.736;8.734;2023-04-27T04:15:24;98001.44;;;1.98;100.00
11448;BME280;43755;49.736;8.734;2023-04-27T04:17:25;98002.28;;;2.02;100.00
11448;BME280;43755;49.736;8.734;2023-04-27T04:19:27;98008.34;;;2.02;100.00
11448;BME280;43755;49.736;8.734;2023-04-27T04:21:28;98005.69;;;2.09;100.00
11448;BME280;43755;49.736;8.734;2023-04-27T04:23:32;98003.03;;;2.13;100.00
11448;BME280;43755;49.736;8.734;2023-04-27T04:25:33;98007.38;;;2.16;100.00
11448;BME280;43755;49.736;8.734;2023-04-27T04:27:35;98005.53;;;2.27;100.00
11448;BME280;43755;49.736;8.734;2023-04-27T04:29:37;98010.69;;;2.34;100.00
11448;BME280;43755;49.736;8.734;2023-04-27T04:31:39;97991.47;;;2.40;100.00
11448;BME280;43755;49.736;8.734;2023-04-27T04:33:41;97994.00;;;2.46;100.00
11448;BME280;43755;49.736;8.734;2023-04-27T04:35:42;97995.69;;;2.52;100.00
11448;BME280;43755;49.736;8.734;2023-04-27T04:37:44;97993.84;;;2.61;100.00
11448;BME280;43755;49.736;8.734;2023-04-27T04:39:47;97985.03;;;2.70;100.00
11448;BME280;43755;49.736;8.734;2023-04-27T04:41:48;97982.38;;;2.71;100.00
11448;BME280;43755;49.736;8.734;2023-04-27T04:43:50;97991.03;;;2.78;100.00
11448;BME280;43755;49.736;8.734;2023-04-27T04:45:51;97990.13;;;2.80;100.00
11448;BME280;43755;49.736;8.734;2023-04-27T04:47:53;97990.03;;;2.88;100.00
11448;BME280;43755;49.736;8.734;2023-04-27T04:49:54;97989.09;;;2.92;100.00
11448;BME280;43755;49.736;8.734;2023-04-27T04:51:56;97999.47;;;3.00;100.00
11448;BME280;43755;49.736;8.734;2023-04-27T04:53:57;97995.03;;;3.06;100.00
11448;BME280;43755;49.736;8.734;2023-04-27T04:56:08;97993.16;;;3.16;100.00
11448;BME280;43755;49.736;8.734;2023-04-27T04:58:10;97998.25;;;3.25;100.00
11448;BME280;43755;49.736;8.734;2023-04-27T05:00:12;97997.25;;;3.34;100.00
11448;BME280;43755;49.736;8.734;2023-04-27T05:02:14;97995.47;;;3.37;100.00
11448;BME280;43755;49.736;8.734;2023-04-27T05:04:15;97997.97;;;3.43;100.00
11448;BME280;43755;49.736;8.734;2023-04-27T05:06:17;98000.50;;;3.51;100.00
11448;BME280;43755;49.736;8.734;2023-04-27T05:08:19;98001.28;;;3.56;100.00
11448;BME280;43755;49.736;8.734;2023-04-27T05:10:20;97999.44;;;3.62;100.00
11448;BME280;43755;49.736;8.734;2023-04-27T05:12:23;98000.13;;;3.74;100.00
11448;BME280;43755;49.736;8.734;2023-04-27T05:14:24;97990.34;;;3.85;100.00
11448;BME280;43755;49.736;8.734;2023-04-27T05:16:26;98002.38;;;3.96;100.00
11448;BME280;43755;49.736;8.734;2023-04-27T05:18:27;97992.66;;;4.04;100.00
11448;BME280;43755;49.736;8.734;2023-04-27T05:20:28;97995.09;;;4.13;100.00
11448;BME280;43755;49.736;8.734;2023-04-27T05:22:30;98003.69;;;4.22;100.00
11448;BME280;43755;49.736;8.734;2023-04-27T05:24:32;98000.03;;;4.32;100.00
11448;BME280;43755;49.736;8.734;2023-04-27T05:26:33;98002.50;;;4.41;100.00
11448;BME280;43755;49.736;8.734;2023-04-27T05:28:36;98006.63;;;4.52;100.00
11448;BME280;43755;49.736;8.734;2023-04-27T05:30:37;98005.56;;;4.63;100.00
11448;BME280;43755;49.736;8.734;2023-04-27T05:32:39;98005.38;;;4.72;100.00
11448;BME280;43755;49.736;8.734;2023-04-27T05:34:40;98009.50;;;4.83;100.00
11448;BME280;43755;49.736;8.734;2023-04-27T05:36:43;98011.00;;;4.97;100.00
11448;BME280;43755;49.736;8.734;2023-04-27T05:38:46;98019.44;;;5.11;100.00
11448;BME280;43755;49.736;8.734;2023-04-27T05:40:53;98019.97;;;5.28;100.00
11448;BME280;43755;49.736;8.734;2023-04-27T05:42:54;98018.75;;;5.43;100.00
11448;BME280;43755;49.736;8.734;2023-04-27T05:44:57;98013.94;;;5.61;100.00
11448;BME280;43755;49.736;8.734;2023-04-27T05:46:58;98012.63;;;5.81;100.00
11448;BME280;43755;49.736;8.734;2023-04-27T05:49:00;98009.66;;;5.96;100.00
11448;BME280;43755;49.736;8.734;2023-04-27T05:51:02;98012.66;;;6.18;100.00
11448;BME280;43755;49.736;8.734;2023-04-27T05:53:03;98024.34;;;6.38;100.00
11448;BME280;43755;49.736;8.734;2023-04-27T05:55:06;98022.19;;;6.54;100.00
11448;BME280;43755;49.736;8.734;2023-04-27T05:57:07;98016.59;;;6.66;100.00
11448;BME280;43755;49.736;8.734;2023-04-27T05:59:09;98016.34;;;6.77;100.00
11448;BME280;43755;49.736;8.734;2023-04-27T06:01:12;98023.06;;;6.87;100.00
11448;BME280;43755;49.736;8.734;2023-04-27T06:03:13;98025.38;;;6.97;100.00
11448;BME280;43755;49.736;8.734;2023-04-27T06:05:15;98024.13;;;7.11;100.00
11448;BME280;43755;49.736;8.734;2023-04-27T06:07:16;98018.59;;;7.20;100.00
11448;BME280;43755;49.736;8.734;2023-04-27T06:09:17;98028.38;;;7.16;100.00
11448;BME280;43755;49.736;8.734;2023-04-27T06:11:19;98028.13;;;6.94;100.00
11448;BME280;43755;49.736;8.734;2023-04-27T06:13:21;98038.88;;;6.85;100.00
11448;BME280;43755;49.736;8.734;2023-04-27T06:15:22;98037.09;;;6.86;100.00
11448;BME280;43755;49.736;8.734;2023-04-27T06:17:25;98037.47;;;7.05;100.00
11448;BME280;43755;49.736;8.734;2023-04-27T06:19:27;98049.03;;;6.99;96.21
11448;BME280;43755;49.736;8.734;2023-04-27T06:21:31;98045.75;;;6.89;90.97
11448;BME280;43755;49.736;8.734;2023-04-27T06:23:32;98049.69;;;6.75;91.85
11448;BME280;43755;49.736;8.734;2023-04-27T06:25:34;98055.09;;;6.69;93.23
11448;BME280;43755;49.736;8.734;2023-04-27T06:27:37;98058.50;;;6.40;98.93
11448;BME280;43755;49.736;8.734;2023-04-27T06:29:39;98055.97;;;6.35;96.34
11448;BME280;43755;49.736;8.734;2023-04-27T06:31:40;98060.44;;;6.32;92.96
11448;BME280;43755;49.736;8.734;2023-04-27T06:33:43;98056.19;;;6.26;89.31
11448;BME280;43755;49.736;8.734;2023-04-27T06:35:44;98071.91;;;6.29;91.18
11448;BME280;43755;49.736;8.734;2023-04-27T06:37:46;98071.84;;;6.31;94.47
11448;BME280;43755;49.736;8.734;2023-04-27T06:39:47;98072.41;;;6.43;96.66
11448;BME280;43755;49.736;8.734;2023-04-27T06:41:49;98073.44;;;6.36;86.07
11448;BME280;43755;49.736;8.734;2023-04-27T06:43:50;98082.88;;;6.45;81.33
11448;BME280;43755;49.736;8.734;2023-04-27T06:45:52;98079.69;;;6.66;80.58
11448;BME280;43755;49.736;8.734;2023-04-27T06:47:53;98076.84;;;6.75;76.86
11448;BME280;43755;49.736;8.734;2023-04-27T06:49:56;98082.50;;;6.92;76.13
11448;BME280;43755;49.736;8.734;2023-04-27T06:51:58;98081.19;;;7.09;75.25
11448;BME280;43755;49.736;8.734;2023-04-27T06:54:00;98084.22;;;7.26;74.70
11448;BME280;43755;49.736;8.734;2023-04-27T06:56:03;98088.16;;;7.42;77.72
11448;BME280;43755;49.736;8.734;2023-04-27T06:58:05;98087.00;;;7.51;73.41
11448;BME280;43755;49.736;8.734;2023-04-27T07:00:07;98079.44;;;7.40;70.22
11448;BME280;43755;49.736;8.734;2023-04-27T07:02:08;98080.31;;;7.39;75.64
11448;BME280;43755;49.736;8.734;2023-04-27T07:04:10;98081.78;;;7.49;74.37
11448;BME280;43755;49.736;8.734;2023-04-27T07:06:13;98078.38;;;7.46;71.07
11448;BME280;43755;49.736;8.734;2023-04-27T07:08:14;98082.75;;;7.47;69.50
11448;BME280;43755;49.736;8.734;2023-04-27T07:10:16;98093.09;;;7.22;65.52
11448;BME280;43755;49.736;8.734;2023-04-27T07:12:17;98088.09;;;7.13;69.91
11448;BME280;43755;49.736;8.734;2023-04-27T07:14:19;98080.50;;;7.33;70.27
11448;BME280;43755;49.736;8.734;2023-04-27T07:16:20;98083.97;;;7.35;70.42
11448;BME280;43755;49.736;8.734;2023-04-27T07:18:22;98084.03;;;7.32;67.42
11448;BME280;43755;49.736;8.734;2023-04-27T07:20:23;98083.78;;;7.41;71.52
11448;BME280;43755;49.736;8.734;2023-04-27T07:22:27;98086.41;;;7.41;67.29
11448;BME280;43755;49.736;8.734;2023-04-27T07:24:28;98084.19;;;7.57;66.82
11448;BME280;43755;49.736;8.734;2023-04-27T07:26:30;98085.38;;;7.76;71.53
11448;BME280;43755;49.736;8.734;2023-04-27T07:28:31;98088.31;;;7.95;72.34
11448;BME280;43755;49.736;8.734;2023-04-27T07:30:34;98081.47;;;8.17;66.24
11448;BME280;43755;49.736;8.734;2023-04-27T07:32:38;98084.13;;;8.43;69.00
11448;BME280;43755;49.736;8.734;2023-04-27T07:34:40;98083.84;;;8.52;64.82
11448;BME280;43755;49.736;8.734;2023-04-27T07:36:41;98087.88;;;8.62;65.13
11448;BME280;43755;49.736;8.734;2023-04-27T07:38:45;98092.41;;;8.59;65.89
11448;BME280;43755;49.736;8.734;2023-04-27T07:40:47;98086.81;;;8.68;64.42
11448;BME280;43755;49.736;8.734;2023-04-27T07:42:49;98081.09;;;8.82;65.68
11448;BME280;43755;49.736;8.734;2023-04-27T07:44:50;98084.41;;;8.87;64.46
11448;BME280;43755;49.736;8.734;2023-04-27T07:46:53;98085.84;;;9.20;68.83
11448;BME280;43755;49.736;8.734;2023-04-27T07:48:57;98087.63;;;9.20;61.41
11448;BME280;43755;49.736;8.734;2023-04-27T07:50:59;98081.41;;;9.22;61.51
11448;BME280;43755;49.736;8.734;2023-04-27T07:53:00;98084.31;;;9.15;66.02
11448;BME280;43755;49.736;8.734;2023-04-27T07:55:04;98084.47;;;9.35;64.84
11448;BME280;43755;49.736;8.734;2023-04-27T07:57:10;98084.09;;;9.44;64.17
11448;BME280;43755;49.736;8.734;2023-04-27T07:59:11;98092.06;;;9.42;63.37
11448;BME280;43755;49.736;8.734;2023-04-27T08:01:13;98086.06;;;9.62;63.62
11448;BME280;43755;49.736;8.734;2023-04-27T08:03:15;98087.56;;;9.69;62.07
11448;BME280;43755;49.736;8.734;2023-04-27T08:05:17;98082.28;;;9.69;62.80
11448;BME280;43755;49.736;8.734;2023-04-27T08:07:18;98078.53;;;9.75;64.82
11448;BME280;43755;49.736;8.734;2023-04-27T08:09:19;98071.78;;;9.90;64.21
11448;BME280;43755;49.736;8.734;2023-04-27T08:11:22;98077.03;;;9.91;62.99
11448;BME280;43755;49.736;8.734;2023-04-27T08:13:24;98084.00;;;9.94;63.65
11448;BME280;43755;49.736;8.734;2023-04-27T08:15:25;98082.88;;;9.99;61.14
11448;BME280;43755;49.736;8.734;2023-04-27T08:17:27;98073.63;;;10.33;64.12
11448;BME280;43755;49.736;8.734;2023-04-27T08:19:28;98082.25;;;10.38;63.93
11448;BME280;43755;49.736;8.734;2023-04-27T08:21:29;98076.19;;;10.12;57.02
11448;BME280;43755;49.736;8.734;2023-04-27T08:23:32;98078.81;;;10.36;60.00
11448;BME280;43755;49.736;8.734;2023-04-27T08:25:34;98079.84;;;10.32;61.41
11448;BME280;43755;49.736;8.734;2023-04-27T08:27:37;98068.38;;;10.09;59.75
11448;BME280;43755;49.736;8.734;2023-04-27T08:29:44;98065.69;;;10.11;59.33
11448;BME280;43755;49.736;8.734;2023-04-27T08:31:46;98069.44;;;10.05;59.09
11448;BME280;43755;49.736;8.734;2023-04-27T08:33:47;98064.97;;;10.29;63.89
11448;BME280;43755;49.736;8.734;2023-04-27T08:35:49;98071.50;;;10.42;61.88
11448;BME280;43755;49.736;8.734;2023-04-27T08:37:50;98069.78;;;10.41;56.96
11448;BME280;43755;49.736;8.734;2023-04-27T08:39:53;98058.91;;;10.69;59.66
11448;BME280;43755;49.736;8.734;2023-04-27T08:41:54;98068.16;;;10.59;56.70
11448;BME280;43755;49.736;8.734;2023-04-27T08:43:57;98056.97;;;10.52;56.13
11448;BME280;43755;49.736;8.734;2023-04-27T08:45:59;98058.44;;;10.59;57.94
11448;BME280;43755;49.736;8.734;2023-04-27T08:48:00;98063.22;;;10.72;57.42
11448;BME280;43755;49.736;8.734;2023-04-27T08:50:02;98065.66;;;10.76;57.44
11448;BME280;43755;49.736;8.734;2023-04-27T08:52:09;98062.94;;;10.78;57.92
11448;BME280;43755;49.736;8.734;2023-04-27T08:54:11;98061.75;;;10.85;55.93
11448;BME280;43755;49.736;8.734;2023-04-27T08:56:12;98052.41;;;10.96;58.30
11448;BME280;43755;49.736;8.734;2023-04-27T08:58:13;98055.16;;;11.34;59.98
11448;BME280;43755;49.736;8.734;2023-04-27T09:00:18;98060.84;;;11.45;57.68
11448;BME280;43755;49.736;8.734;2023-04-27T09:02:20;98059.69;;;11.12;56.19
11448;BME280;43755;49.736;8.734;2023-04-27T09:04:22;98059.31;;;11.00;56.23
11448;BME280;43755;49.736;8.734;2023-04-27T09:06:30;98068.16;;;11.20;56.33
11448;BME280;43755;49.736;8.734;2023-04-27T09:08:42;98060.78;;;11.26;57.15
11448;BME280;43755;49.736;8.734;2023-04-27T09:10:45;98070.94;;;11.17;56.47
11448;BME280;43755;49.736;8.734;2023-04-27T09:12:54;98072.28;;;11.45;57.79
11448;BME280;43755;49.736;8.734;2023-04-27T09:14:56;98070.00;;;11.57;55.64
11448;BME280;43755;49.736;8.734;2023-04-27T09:16:58;98077.75;;;11.61;56.55
11448;BME280;43755;49.736;8.734;2023-04-27T09:19:00;98076.66;;;11.85;56.51
11448;BME280;43755;49.736;8.734;2023-04-27T09:21:01;98079.88;;;11.92;56.75
11448;BME280;43755;49.736;8.734;2023-04-27T09:23:04;98079.75;;;11.76;54.71
11448;BME280;43755;49.736;8.734;2023-04-27T09:25:05;98068.34;;;11.74;56.37
11448;BME280;43755;49.736;8.734;2023-04-27T09:27:07;98063.78;;;11.78;54.04
11448;BME280;43755;49.736;8.734;2023-04-27T09:29:09;98067.41;;;11.75;54.42
11448;BME280;43755;49.736;8.734;2023-04-27T09:31:10;98065.47;;;11.60;55.42
11448;BME280;43755;49.736;8.734;2023-04-27T09:33:13;98061.19;;;11.56;55.41
11448;BME280;43755;49.736;8.734;2023-04-27T09:35:20;98055.97;;;11.55;54.84
11448;BME280;43755;49.736;8.734;2023-04-27T09:37:22;98066.22;;;11.62;64.33
11448;BME280;43755;49.736;8.734;2023-04-27T09:39:24;98057.28;;;11.65;76.08
11448;BME280;43755;49.736;8.734;2023-04-27T09:41:25;98061.66;;;11.66;56.01
11448;BME280;43755;49.736;8.734;2023-04-27T09:43:27;98067.81;;;11.66;57.94
11448;BME280;43755;49.736;8.734;2023-04-27T09:45:32;98056.44;;;11.64;55.28
11448;BME280;43755;49.736;8.734;2023-04-27T09:47:34;98064.53;;;11.99;59.07
11448;BME280;43755;49.736;8.734;2023-04-27T09:49:37;98061.03;;;11.98;67.55
11448;BME280;43755;49.736;8.734;2023-04-27T09:51:39;98053.16;;;11.97;67.46
11448;BME280;43755;49.736;8.734;2023-04-27T09:53:48;98057.63;;;11.77;55.85
11448;BME280;43755;49.736;8.734;2023-04-27T09:56:00;98059.03;;;12.03;60.78
11448;BME280;43755;49.736;8.734;2023-04-27T09:58:22;98056.47;;;11.83;56.79
11448;BME280;43755;49.736;8.734;2023-04-27T10:00:37;98059.09;;;12.02;56.92
11448;BME280;43755;49.736;8.734;2023-04-27T10:02:51;98050.78;;;12.09;60.63
11448;BME280;43755;49.736;8.734;2023-04-27T10:05:14;98045.91;;;12.19;54.33
11448;BME280;43755;49.736;8.734;2023-04-27T10:07:21;98045.97;;;12.53;54.84
11448;BME280;43755;49.736;8.734;2023-04-27T10:09:23;98041.09;;;12.44;57.62
11448;BME280;43755;49.736;8.734;2023-04-27T10:11:32;98042.44;;;12.36;58.07
11448;BME280;43755;49.736;8.734;2023-04-27T10:13:37;98041.25;;;12.41;63.09
11448;BME280;43755;49.736;8.734;2023-04-27T10:15:39;98045.03;;;12.54;65.07
11448;BME280;43755;49.736;8.734;2023-04-27T10:17:47;98046.66;;;12.74;54.70
11448;BME280;43755;49.736;8.734;2023-04-27T10:19:53;98050.34;;;12.89;55.23
11448;BME280;43755;49.736;8.734;2023-04-27T10:21:58;98041.84;;;13.17;51.95
11448;BME280;43755;49.736;8.734;2023-04-27T10:24:06;98046.72;;;13.41;52.79
11448;BME280;43755;49.736;8.734;2023-04-27T10:26:08;98042.16;;;13.43;51.62
11448;BME280;43755;49.736;8.734;2023-04-27T10:28:15;98042.53;;;13.53;50.23
11448;BME280;43755;49.736;8.734;2023-04-27T10:30:17;98053.09;;;13.55;51.56
11448;BME280;43755;49.736;8.734;2023-04-27T10:32:21;98047.94;;;13.67;49.60
11448;BME280;43755;49.736;8.734;2023-04-27T10:34:26;98041.94;;;13.48;54.00
11448;BME280;43755;49.736;8.734;2023-04-27T10:36:33;98045.94;;;13.39;54.33
11448;BME280;43755;49.736;8.734;2023-04-27T10:38:39;98048.22;;;13.30;53.14
11448;BME280;43755;49.736;8.734;2023-04-27T10:40:43;98040.16;;;13.48;54.05
11448;BME280;43755;49.736;8.734;2023-04-27T10:42:46;98043.84;;;13.62;52.62
11448;BME280;43755;49.736;8.734;2023-04-27T10:44:53;98050.78;;;13.64;55.54
11448;BME280;43755;49.736;8.734;2023-04-27T10:46:56;98042.53;;;14.02;52.29
11448;BME280;43755;49.736;8.734;2023-04-27T10:48:58;98041.03;;;13.96;52.66
11448;BME280;43755;49.736;8.734;2023-04-27T10:51:00;98037.94;;;14.35;50.50